Time;durP1;ratioP1;P1;durP2;ratioP2;P2;SDS_P1;SDS_P2;PMS_P1;PMS_P2;Temp;Humidity;BMP_temperature;BMP_pressure;BME280_temperature;BME280_humidity;BME280_pressure;Samples;Min_cycle;Max_cycle;Signal;HPM_P1;HPM_P2
2023/03/03 04:58:09;;;;;;;26.55;15.80;;;;;;;7.03;74.79;100646.72;5604041;31;87866;-55
2023/03/03 05:01:15;;;;;;;23.70;14.93;;;;;;;7.03;74.79;100646.72;5583272;31;33201;-55
2023/03/03 05:04:18;;;;;;;24.42;14.30;;;;;;;6.52;76.06;100656.78;5597594;31;33842;-55
2023/03/03 05:07:21;;;;;;;24.92;15.18;;;;;;;6.43;79.60;100652.12;5602750;31;33855;-55
2023/03/03 05:10:23;;;;;;;24.48;14.85;;;;;;;6.48;78.70;100654.84;5602119;31;33662;-55
2023/03/03 05:13:26;;;;;;;25.12;14.73;;;;;;;6.63;80.62;100656.91;5601986;31;33222;-55
2023/03/03 05:16:29;;;;;;;22.87;15.07;;;;;;;6.46;77.87;100652.44;5616183;31;33988;-55
2023/03/03 05:19:33;;;;;;;21.62;14.90;;;;;;;6.58;75.84;100645.12;5619290;31;33667;-55
2023/03/03 05:22:35;;;;;;;23.98;14.85;;;;;;;6.78;74.90;100654.44;5615592;31;33344;-55
2023/03/03 05:25:40;;;;;;;24.73;15.10;;;;;;;6.55;81.18;100650.13;5622016;31;33649;-55
2023/03/03 05:28:42;;;;;;;24.02;15.55;;;;;;;6.65;75.54;100652.94;5622502;31;33632;-55
2023/03/03 05:31:45;;;;;;;26.25;15.43;;;;;;;6.74;75.09;100654.13;5617187;31;34274;-55
2023/03/03 05:34:47;;;;;;;23.92;15.43;;;;;;;6.89;74.77;100658.00;5619473;31;33204;-55
2023/03/03 05:37:51;;;;;;;23.77;16.08;;;;;;;6.90;73.99;100657.78;5622008;31;33600;-55
2023/03/03 05:40:54;;;;;;;27.42;16.87;;;;;;;7.03;73.45;100664.59;5619833;31;34043;-55
2023/03/03 05:43:56;;;;;;;29.85;16.17;;;;;;;7.07;72.92;100673.69;5601877;31;33283;-55
2023/03/03 05:46:58;;;;;;;24.70;15.45;;;;;;;7.08;72.71;100672.62;5602494;31;33883;-55
2023/03/03 05:50:01;;;;;;;27.70;15.82;;;;;;;7.12;72.61;100668.44;5602051;31;34175;-55
2023/03/03 05:53:03;;;;;;;24.33;15.63;;;;;;;7.13;73.00;100677.25;5617891;31;33957;-55
2023/03/03 05:56:06;;;;;;;20.30;15.05;;;;;;;7.13;72.96;100664.72;5621880;31;34270;-55
2023/03/03 05:59:08;;;;;;;23.08;15.75;;;;;;;7.16;73.34;100663.41;5621648;31;33710;-55
2023/03/03 06:02:11;;;;;;;24.52;15.70;;;;;;;7.22;72.68;100665.88;5611875;31;34256;-55
2023/03/03 06:05:13;;;;;;;27.00;17.05;;;;;;;7.20;74.04;100669.84;5601686;31;34387;-55
2023/03/03 06:08:15;;;;;;;26.85;15.70;;;;;;;7.19;73.18;100663.72;5593926;31;34377;-55
2023/03/03 06:11:18;;;;;;;29.37;16.75;;;;;;;7.25;79.40;100664.56;5591933;31;33325;-55
2023/03/03 06:14:21;;;;;;;24.25;16.05;;;;;;;7.30;74.41;100667.28;5608527;31;34079;-55
2023/03/03 06:17:25;;;;;;;34.20;17.65;;;;;;;7.23;79.32;100674.69;5608067;31;33461;-55
2023/03/03 06:20:28;;;;;;;30.08;17.62;;;;;;;7.32;77.25;100675.84;5607791;31;34069;-55
2023/03/03 06:23:30;;;;;;;25.00;17.67;;;;;;;7.41;74.05;100674.31;5589101;31;34289;-55
2023/03/03 06:26:32;;;;;;;29.80;18.75;;;;;;;7.48;73.54;100680.28;5588366;31;34123;-55
2023/03/03 06:29:35;;;;;;;41.95;18.73;;;;;;;7.57;72.53;100677.16;5588312;31;34274;-55
2023/03/03 06:32:38;;;;;;;37.92;18.20;;;;;;;7.53;73.57;100677.66;5601266;31;33719;-56
2023/03/03 06:35:40;;;;;;;33.88;17.90;;;;;;;7.51;77.08;100682.41;5607979;31;34115;-55
2023/03/03 06:38:43;;;;;;;31.10;18.77;;;;;;;7.74;72.35;100683.97;5608083;31;34274;-55
2023/03/03 06:41:45;;;;;;;28.10;18.02;;;;;;;7.77;72.40;100682.66;5601244;31;33803;-55
2023/03/03 06:44:48;;;;;;;30.42;18.67;;;;;;;7.68;73.00;100685.00;5606994;31;33730;-55
2023/03/03 06:47:50;;;;;;;29.90;19.60;;;;;;;7.64;74.32;100683.88;5587536;31;34369;-55
2023/03/03 06:50:52;;;;;;;42.45;20.15;;;;;;;7.69;77.22;100689.28;5587771;31;33252;-55
2023/03/03 06:53:57;;;;;;;26.23;18.00;;;;;;;7.88;79.74;100695.06;5588823;31;34278;-55
2023/03/03 06:57:14;;;;;;;35.33;19.15;;;;;;;7.84;80.39;100691.25;5601990;31;33677;-55
2023/03/03 07:00:22;;;;;;;31.83;18.65;;;;;;;7.85;74.23;100700.91;5607850;31;34324;-55
2023/03/03 07:03:33;;;;;;;29.67;19.80;;;;;;;7.96;79.09;100701.78;5586778;31;33786;-56
2023/03/03 07:06:36;;;;;;;37.65;19.87;;;;;;;8.04;73.32;100695.16;5586094;31;33422;-55
2023/03/03 07:09:38;;;;;;;31.95;20.73;;;;;;;7.99;73.87;100707.41;5587763;31;33669;-55
2023/03/03 07:12:40;;;;;;;37.50;21.60;;;;;;;8.01;71.70;100704.47;5587899;31;33665;-55
2023/03/03 07:15:43;;;;;;;32.78;22.13;;;;;;;8.09;72.27;100708.56;5582072;31;33788;-56
2023/03/03 07:18:52;;;;;;;33.33;21.92;;;;;;;8.10;72.67;100705.63;5578686;31;34296;-56
2023/03/03 07:21:55;;;;;;;40.55;24.85;;;;;;;8.08;71.70;100714.94;5581026;31;32504;-56
2023/03/03 07:25:00;;;;;;;36.40;23.15;;;;;;;8.32;85.30;100715.41;5583281;31;33348;-55
2023/03/03 07:28:23;;;;;;;40.90;23.77;;;;;;;8.29;78.34;100719.38;5581014;31;33569;-55
2023/03/03 07:31:34;;;;;;;34.78;23.95;;;;;;;8.21;82.13;100720.69;5581521;31;34951;-55
2023/03/03 07:34:42;;;;;;;42.33;24.27;;;;;;;8.26;89.57;100721.78;5584344;31;33238;-55
2023/03/03 07:37:45;;;;;;;37.70;23.92;;;;;;;8.42;86.15;100724.31;5579790;31;34254;-55
2023/03/03 07:40:56;;;;;;;40.30;25.95;;;;;;;8.35;79.64;100723.72;5584725;31;33262;-55
2023/03/03 07:44:12;;;;;;;32.42;21.87;;;;;;;8.35;73.52;100725.59;5581747;31;33283;-55
2023/03/03 07:47:29;;;;;;;32.85;22.13;;;;;;;8.43;72.18;100720.56;5584228;31;33329;-55
2023/03/03 07:50:33;;;;;;;34.90;23.23;;;;;;;8.24;72.00;100730.84;5584459;31;34284;-55
2023/03/03 07:53:36;;;;;;;33.45;21.92;;;;;;;8.40;71.41;100725.63;5581934;31;33495;-55
2023/03/03 07:56:39;;;;;;;34.38;22.60;;;;;;;8.41;72.11;100722.72;5582902;31;33359;-55
2023/03/03 07:59:48;;;;;;;35.08;22.15;;;;;;;8.40;71.74;100730.97;5582296;31;33721;-55
2023/03/03 08:03:02;;;;;;;37.70;24.05;;;;;;;8.31;72.35;100730.62;5580567;31;34302;-55
2023/03/03 08:06:28;;;;;;;38.95;24.30;;;;;;;8.49;72.03;100721.41;5575540;31;33424;-55
2023/03/03 08:09:40;;;;;;;39.47;24.12;;;;;;;8.60;71.52;100727.63;5584290;31;33939;-55
2023/03/03 08:12:46;;;;;;;36.42;23.83;;;;;;;8.84;94.07;100723.50;5579931;31;33700;-55
2023/03/03 08:15:50;;;;;;;38.30;24.55;;;;;;;8.88;76.88;100724.59;5585002;31;33698;-55
2023/03/03 08:18:57;;;;;;;36.95;25.17;;;;;;;8.92;75.33;100717.66;5585386;31;33231;-55
2023/03/03 08:22:13;;;;;;;39.22;25.58;;;;;;;8.88;73.36;100724.59;5581029;31;34208;-55
2023/03/03 08:25:16;;;;;;;37.53;23.45;;;;;;;9.00;72.90;100724.34;5581970;31;33647;-55
2023/03/03 08:28:19;;;;;;;38.75;25.17;;;;;;;8.98;75.50;100715.00;5584800;31;34265;-55
2023/03/03 08:31:22;;;;;;;40.90;25.77;;;;;;;9.11;80.56;100727.91;5581527;31;33493;-55
2023/03/03 08:34:42;;;;;;;41.75;26.45;;;;;;;9.60;87.83;100722.97;5582830;31;32506;-55
2023/03/03 08:37:44;;;;;;;45.50;28.75;;;;;;;9.41;71.81;100719.16;5582986;31;32220;-55
2023/03/03 08:40:48;;;;;;;41.58;26.58;;;;;;;9.17;72.12;100716.13;5585082;31;33688;-55
2023/03/03 08:43:50;;;;;;;43.40;27.52;;;;;;;9.27;72.40;100713.53;5582313;31;33700;-55
2023/03/03 08:46:52;;;;;;;40.30;26.55;;;;;;;9.25;70.75;100712.16;5584294;31;34459;-55
2023/03/03 08:49:55;;;;;;;36.42;25.25;;;;;;;9.29;71.93;100715.91;5584186;31;34156;-55
2023/03/03 08:52:57;;;;;;;32.13;21.08;;;;;;;9.32;71.33;100716.19;5582659;31;33797;-55
2023/03/03 08:56:00;;;;;;;27.13;18.55;;;;;;;9.51;71.06;100719.19;5583540;31;33430;-55
2023/03/03 08:59:02;;;;;;;33.63;19.77;;;;;;;9.57;75.45;100711.94;5583347;31;33193;-55
2023/03/03 09:02:05;;;;;;;32.08;21.58;;;;;;;9.67;71.65;100716.53;5580097;31;33552;-56
2023/03/03 09:05:09;;;;;;;29.20;20.10;;;;;;;9.69;70.55;100717.06;5577716;31;33111;-55
2023/03/03 09:08:12;;;;;;;33.35;21.12;;;;;;;9.76;71.25;100714.94;5577998;31;33687;-55
2023/03/03 09:11:23;;;;;;;27.20;18.25;;;;;;;9.76;70.13;100715.72;5574480;31;33700;-56
2023/03/03 09:14:28;;;;;;;26.42;17.60;;;;;;;9.85;72.90;100716.81;5579422;31;33979;-55
2023/03/03 09:17:34;;;;;;;28.45;17.30;;;;;;;9.93;69.59;100710.12;5575758;31;33277;-56
2023/03/03 09:20:46;;;;;;;25.30;16.90;;;;;;;9.98;68.04;100709.34;5576460;31;32428;-55
2023/03/03 09:23:57;;;;;;;22.45;17.00;;;;;;;10.00;68.99;100710.69;5575833;31;33166;-55
2023/03/03 09:27:00;;;;;;;29.60;18.02;;;;;;;9.95;67.25;100707.19;5578644;31;33635;-55
2023/03/03 09:30:39;;;;;;;29.48;18.85;;;;;;;9.96;68.92;100706.91;5573882;31;34549;-55
2023/03/03 09:33:45;;;;;;;34.67;18.67;;;;;;;10.01;68.77;100704.25;5573825;31;33495;-55
2023/03/03 09:36:48;;;;;;;;;;;;;;;10.17;68.99;100712.28;5581004;31;34355;-55
2023/03/03 09:39:54;;;;;;;28.40;18.40;;;;;;;10.28;67.71;100712.03;5581801;31;33862;-55
2023/03/03 09:43:16;;;;;;;28.08;18.92;;;;;;;10.46;68.40;100709.84;5580785;31;32412;-55
2023/03/03 09:46:36;;;;;;;27.60;18.23;;;;;;;10.84;76.06;100710.31;5584853;31;34302;-55
2023/03/03 09:49:48;;;;;;;25.75;16.45;;;;;;;10.56;64.76;100705.28;5582217;31;35887;-55
2023/03/03 09:53:18;;;;;;;26.12;17.20;;;;;;;10.44;66.31;100718.16;5584980;31;34350;-55
2023/03/03 09:56:30;;;;;;;31.23;18.50;;;;;;;10.51;64.81;100709.84;5581718;31;33867;-55
2023/03/03 09:59:41;;;;;;;25.65;17.65;;;;;;;10.55;66.28;100702.88;5582416;31;33597;-55
2023/03/03 10:02:50;;;;;;;26.92;17.35;;;;;;;10.56;65.67;100699.94;5582380;31;34286;-56
2023/03/03 10:06:10;;;;;;;26.37;16.55;;;;;;;10.48;66.02;100713.06;5577762;31;33490;-55
2023/03/03 10:09:34;;;;;;;20.80;14.80;;;;;;;10.58;65.61;100705.81;5582168;31;33653;-55
2023/03/03 10:12:55;;;;;;;20.42;13.88;;;;;;;10.70;69.52;100705.50;5578936;31;33410;-55
2023/03/03 10:16:07;;;;;;;25.37;15.65;;;;;;;10.82;64.74;100699.84;5579573;31;34344;-56
2023/03/03 10:19:36;;;;;;;21.70;14.55;;;;;;;10.95;67.79;100699.25;5579910;31;33786;-56
2023/03/03 10:22:47;;;;;;;18.50;12.93;;;;;;;11.03;67.44;100697.87;5584170;31;33884;-56
2023/03/03 10:26:08;;;;;;;19.45;12.68;;;;;;;10.96;62.78;100694.69;5583536;31;33391;-55
2023/03/03 10:29:52;;;;;;;22.15;12.63;;;;;;;10.94;63.39;100691.47;5582961;31;34367;-55
2023/03/03 10:33:08;;;;;;;19.02;12.25;;;;;;;10.90;64.28;100687.75;5555259;31;33263;-55
2023/03/03 10:36:11;;;;;;;21.67;11.20;;;;;;;11.08;64.20;100675.59;5580167;31;34282;-56
2023/03/03 10:39:42;;;;;;;22.83;12.23;;;;;;;11.10;64.06;100681.50;5581357;31;33804;-55
2023/03/03 10:43:04;;;;;;;24.45;12.55;;;;;;;11.22;64.31;100680.06;5582088;31;33628;-55
2023/03/03 10:46:34;;;;;;;22.37;12.93;;;;;;;11.27;66.29;100672.00;5580970;31;34350;-55
2023/03/03 10:49:55;;;;;;;16.77;11.90;;;;;;;11.50;62.16;100670.50;5583279;31;33780;-55
2023/03/03 10:53:17;;;;;;;25.23;12.77;;;;;;;11.38;65.39;100659.31;5583780;31;33409;-55
2023/03/03 10:56:25;;;;;;;18.92;11.93;;;;;;;11.32;62.04;100663.09;5584448;31;34352;-56
2023/03/03 11:00:17;;;;;;;18.62;11.90;;;;;;;11.38;68.32;100653.94;5577411;31;33356;-55
2023/03/03 11:03:46;;;;;;;17.73;11.75;;;;;;;11.43;63.21;100653.13;5571206;31;33765;-55
2023/03/03 11:06:53;;;;;;;19.05;11.65;;;;;;;11.55;62.59;100658.13;5583668;31;33664;-55
2023/03/03 11:10:23;;;;;;;16.42;11.35;;;;;;;11.47;61.72;100652.28;5577660;31;34417;-55
2023/03/03 11:13:32;;;;;;;21.12;12.45;;;;;;;11.69;65.53;100646.47;5576537;31;33596;-55
2023/03/03 11:17:12;;;;;;;22.00;13.85;;;;;;;11.65;64.23;100641.94;5585535;31;33264;-55
2023/03/03 11:20:27;;;;;;;22.55;15.55;;;;;;;11.77;63.54;100645.06;5582459;31;33723;-55
2023/03/03 11:24:09;;;;;;;17.83;12.35;;;;;;;11.89;63.94;100631.31;5582857;31;33720;-55
2023/03/03 11:27:46;;;;;;;17.87;12.32;;;;;;;11.85;60.16;100623.00;5583104;31;35331;-55
2023/03/03 11:30:51;;;;;;;21.55;13.65;;;;;;;11.93;61.91;100618.91;5581774;31;33633;-55
2023/03/03 11:34:18;;;;;;;21.85;13.32;;;;;;;12.01;60.01;100612.12;5583195;31;33764;-55
2023/03/03 11:37:23;;;;;;;18.75;12.85;;;;;;;12.02;66.24;100611.03;5573307;31;33932;-55
2023/03/03 11:40:37;;;;;;;17.25;12.35;;;;;;;12.19;61.99;100601.44;5579561;31;33847;-55
2023/03/03 11:43:54;;;;;;;23.05;13.75;;;;;;;12.23;61.66;100597.09;5577792;31;33461;-55
2023/03/03 11:47:24;;;;;;;19.95;13.93;;;;;;;12.28;59.87;100604.28;5580943;31;33679;-55
2023/03/03 11:50:30;;;;;;;23.70;13.62;;;;;;;12.28;60.11;100588.16;5586905;31;34330;-55
2023/03/03 11:53:39;;;;;;;23.75;14.30;;;;;;;12.25;61.90;100585.25;5584257;31;33162;-56
2023/03/03 11:56:44;;;;;;;23.48;14.00;;;;;;;12.20;58.73;100580.75;5580073;31;33771;-56
2023/03/03 11:59:53;;;;;;;22.90;15.60;;;;;;;12.18;60.92;100582.91;5582921;31;33589;-55
2023/03/03 12:03:21;;;;;;;25.15;16.70;;;;;;;12.19;59.97;100576.47;5583951;31;33657;-56
2023/03/03 12:06:45;;;;;;;21.30;13.82;;;;;;;12.18;60.08;100570.25;5582141;31;33682;-55
2023/03/03 12:10:06;;;;;;;23.20;13.13;;;;;;;12.28;59.18;100576.63;5586364;31;34053;-55
2023/03/03 12:13:37;;;;;;;22.30;13.75;;;;;;;12.31;60.38;100567.97;5587148;31;32036;-55
2023/03/03 12:16:39;;;;;;;20.15;14.80;;;;;;;12.33;65.68;100561.25;5564496;31;34263;-55
2023/03/03 12:19:51;;;;;;;20.30;11.12;;;;;;;12.37;61.08;100561.47;5579002;31;33819;-57
2023/03/03 12:23:26;;;;;;;17.00;11.90;;;;;;;12.46;62.48;100562.44;5573019;31;33674;-55
2023/03/03 12:26:50;;;;;;;18.70;13.00;;;;;;;12.54;62.34;100551.03;5570016;31;34293;-56
2023/03/03 12:29:52;;;;;;;25.08;15.75;;;;;;;12.58;61.19;100543.19;5568869;31;33725;-55
2023/03/03 12:33:17;;;;;;;23.60;15.05;;;;;;;12.54;58.65;100551.03;5576121;31;34076;-55
2023/03/03 12:36:48;;;;;;;27.17;14.47;;;;;;;12.66;65.31;100550.62;5566957;31;33583;-56
2023/03/03 12:40:07;;;;;;;17.42;11.90;;;;;;;13.01;74.69;100532.34;5557399;31;34145;-55
2023/03/03 12:43:37;;;;;;;17.35;12.70;;;;;;;13.00;58.64;100542.31;5572684;31;34450;-55
2023/03/03 12:46:43;;;;;;;24.55;14.73;;;;;;;13.17;64.82;100539.88;5577071;31;34432;-56
2023/03/03 12:50:00;;;;;;;19.08;12.45;;;;;;;13.10;56.88;100534.09;5576280;31;33298;-55
2023/03/03 12:53:44;;;;;;;16.95;10.48;;;;;;;13.22;61.88;100535.53;5587188;31;33723;-55
2023/03/03 12:57:12;;;;;;;16.73;12.18;;;;;;;13.21;55.50;100544.69;5557109;31;33730;-55
2023/03/03 13:00:38;;;;;;;20.05;10.70;;;;;;;13.15;64.25;100541.31;5585927;31;33911;-55
2023/03/03 13:03:49;;;;;;;;;;;;;;;13.00;54.76;100539.63;5588184;31;33700;-55
2023/03/03 13:07:20;;;;;;;15.80;10.77;;;;;;;12.88;55.70;100533.88;5580523;31;33826;-55
2023/03/03 13:10:40;;;;;;;18.00;11.17;;;;;;;12.88;56.39;100536.56;5587595;31;33664;-55
2023/03/03 13:13:57;;;;;;;16.67;10.88;;;;;;;12.75;55.11;100532.75;5587396;31;33576;-55
2023/03/03 13:17:41;;;;;;;19.48;11.30;;;;;;;12.86;54.85;100539.56;5586973;31;34371;-55
2023/03/03 13:20:56;;;;;;;15.15;10.65;;;;;;;12.70;54.19;100532.81;5581449;31;34450;-55
2023/03/03 13:24:10;;;;;;;23.65;11.85;;;;;;;12.62;53.76;100526.19;5589865;31;33825;-55
2023/03/03 13:27:18;;;;;;;14.07;10.98;;;;;;;12.55;53.64;100523.06;5589931;31;33640;-55
2023/03/03 13:30:32;;;;;;;12.50;10.10;;;;;;;12.92;74.51;100524.16;5589816;31;33894;-55
2023/03/03 13:33:35;;;;;;;14.48;10.82;;;;;;;13.23;67.83;100523.66;5589483;31;34085;-55
2023/03/03 13:36:49;;;;;;;13.43;10.38;;;;;;;13.36;67.67;100522.94;5588919;31;33807;-55
2023/03/03 13:40:00;;;;;;;13.88;10.07;;;;;;;13.39;56.16;100520.47;5585624;31;33644;-55
2023/03/03 13:43:29;;;;;;;16.95;10.13;;;;;;;13.42;58.58;100510.22;5586860;31;34549;-55
2023/03/03 13:46:34;;;;;;;11.85;10.13;;;;;;;13.42;50.72;100508.31;5582843;31;34366;-55
2023/03/03 13:49:53;;;;;;;14.02;9.95;;;;;;;13.39;52.49;100503.50;5586065;31;33297;-55
2023/03/03 13:53:29;;;;;;;16.83;12.18;;;;;;;13.40;62.01;100500.50;5589443;31;33319;-55
2023/03/03 13:57:02;;;;;;;19.33;12.82;;;;;;;13.45;61.67;100504.22;5588940;31;33752;-56
2023/03/03 14:00:26;;;;;;;21.77;12.77;;;;;;;13.33;53.35;100500.09;5569292;32;33588;-55
2023/03/03 14:04:06;;;;;;;18.10;13.48;;;;;;;13.19;63.01;100504.63;5569700;32;33609;-55
2023/03/03 14:07:16;;;;;;;20.17;12.90;;;;;;;13.14;67.94;100502.81;5569024;32;34381;-55
2023/03/03 14:10:30;;;;;;;17.67;12.25;;;;;;;13.20;57.53;100502.72;5573452;31;33499;-56
2023/03/03 14:13:44;;;;;;;21.27;13.07;;;;;;;13.13;62.47;100495.03;5580548;31;34318;-55
2023/03/03 14:16:51;;;;;;;16.58;12.30;;;;;;;13.11;60.66;100489.13;5589087;31;33799;-55
2023/03/03 14:20:11;;;;;;;17.52;12.25;;;;;;;12.98;60.12;100493.38;5582811;31;33970;-55
2023/03/03 14:23:46;;;;;;;22.45;11.73;;;;;;;12.94;53.99;100492.34;5572280;31;34004;-55
2023/03/03 14:26:51;;;;;;;17.15;12.20;;;;;;;13.09;60.56;100481.34;5569306;32;34325;-55
2023/03/03 14:29:54;;;;;;;16.87;11.90;;;;;;;13.26;56.02;100478.16;5574802;31;34347;-55
2023/03/03 14:33:08;;;;;;;16.87;11.48;;;;;;;12.88;49.92;100474.69;5588487;31;34123;-55
2023/03/03 14:36:12;;;;;;;18.20;12.80;;;;;;;12.71;49.99;100472.53;5588357;31;33297;-55
2023/03/03 14:39:37;;;;;;;18.75;13.50;;;;;;;12.78;49.68;100482.91;5588179;31;34409;-55
2023/03/03 14:42:55;;;;;;;20.20;14.00;;;;;;;13.00;61.16;100474.25;5587876;31;33264;-55
2023/03/03 14:46:19;;;;;;;21.85;14.23;;;;;;;12.98;48.59;100465.66;5589033;31;33213;-55
2023/03/03 14:49:32;;;;;;;22.08;14.50;;;;;;;12.87;50.15;100470.41;5588839;31;34010;-55
2023/03/03 14:52:40;;;;;;;19.45;15.40;;;;;;;12.90;51.29;100459.84;5589022;31;33680;-55
2023/03/03 14:55:46;;;;;;;20.95;15.60;;;;;;;12.91;51.46;100466.84;5588900;31;33713;-56
2023/03/03 14:58:49;;;;;;;17.02;14.68;;;;;;;12.86;49.46;100474.19;5588981;31;33822;-55
2023/03/03 15:02:00;;;;;;;18.67;14.95;;;;;;;12.83;49.24;100472.09;5588778;31;33723;-55
2023/03/03 15:05:20;;;;;;;24.45;16.30;;;;;;;12.76;49.37;100475.16;5588727;31;33791;-56
2023/03/03 15:08:35;;;;;;;24.55;15.98;;;;;;;12.76;49.41;100466.28;5588087;31;34318;-55
2023/03/03 15:11:38;;;;;;;23.20;16.85;;;;;;;12.72;50.53;100468.75;5588712;31;33918;-56
2023/03/03 15:14:45;;;;;;;24.48;15.93;;;;;;;12.76;55.52;100477.03;5588572;31;33720;-56
2023/03/03 15:17:57;;;;;;;22.67;16.17;;;;;;;12.81;53.15;100477.75;5588659;31;33759;-56
2023/03/03 15:21:11;;;;;;;20.73;16.62;;;;;;;12.70;50.17;100471.72;5588732;31;33418;-56
2023/03/03 15:24:42;;;;;;;22.02;17.42;;;;;;;12.64;49.45;100474.78;5581367;31;34480;-56
2023/03/03 15:27:52;;;;;;;22.67;18.52;;;;;;;12.55;48.83;100482.72;5587323;31;33906;-55
2023/03/03 15:31:13;;;;;;;26.17;18.00;;;;;;;12.42;48.49;100486.94;5574254;31;34430;-55
2023/03/03 15:34:47;;;;;;;29.20;18.33;;;;;;;12.37;49.00;100486.19;5568830;31;33678;-55
2023/03/03 15:38:03;;;;;;;23.67;18.17;;;;;;;12.08;49.18;100486.28;5577672;31;33844;-55
2023/03/03 15:41:24;;;;;;;24.45;17.48;;;;;;;12.26;49.30;100482.03;5584055;31;33032;-55
2023/03/03 15:44:41;;;;;;;22.13;16.45;;;;;;;12.21;48.99;100488.28;5578606;31;33561;-55
2023/03/03 15:48:02;;;;;;;22.27;16.35;;;;;;;12.13;48.27;100495.09;5574363;31;33659;-55
2023/03/03 15:51:20;;;;;;;24.55;17.70;;;;;;;12.07;49.62;100493.56;5568303;32;33748;-55
2023/03/03 15:54:28;;;;;;;26.83;17.12;;;;;;;12.11;49.74;100491.88;5568218;32;34406;-55
2023/03/03 15:57:50;;;;;;;19.55;15.57;;;;;;;12.07;49.10;100495.44;5568747;32;34364;-55
2023/03/03 16:01:09;;;;;;;24.33;16.12;;;;;;;12.19;52.00;100502.00;5568444;32;34115;-55
2023/03/03 16:04:16;;;;;;;20.80;15.68;;;;;;;12.17;49.89;100498.78;5568488;32;33644;-55
2023/03/03 16:07:35;;;;;;;26.58;16.23;;;;;;;12.20;48.98;100494.75;5568945;32;33708;-55
2023/03/03 16:10:59;;;;;;;19.80;15.32;;;;;;;12.17;49.59;100504.16;5568771;32;33654;-56
2023/03/03 16:14:37;;;;;;;26.37;17.58;;;;;;;12.26;53.14;100509.72;5568804;32;33422;-55
2023/03/03 16:17:42;;;;;;;28.50;17.10;;;;;;;12.12;50.50;100515.00;5568578;32;33750;-56
2023/03/03 16:20:59;;;;;;;21.80;15.65;;;;;;;12.09;51.74;100520.16;5568596;32;33372;-55
2023/03/03 16:24:26;;;;;;;24.58;16.80;;;;;;;12.14;65.67;100522.75;5568826;32;34354;-55
2023/03/03 16:27:31;;;;;;;23.80;16.45;;;;;;;12.27;49.21;100522.06;5568575;32;34328;-55
